createdAt,value
2018-10-03T00:02:17.320Z,8.92
2018-10-03T00:05:20.839Z,8.86
2018-10-03T00:08:24.442Z,8.96
2018-10-03T00:11:28.187Z,8.96
2018-10-03T00:14:31.830Z,8.95
2018-10-03T00:17:35.354Z,9.03
2018-10-03T00:20:39.094Z,9.08
2018-10-03T00:23:42.786Z,9.15
2018-10-03T00:26:46.379Z,9.07
2018-10-03T00:29:50.072Z,9.09
2018-10-03T00:32:53.586Z,9.19
2018-10-03T00:35:57.219Z,9.17
2018-10-03T00:39:00.930Z,9.11
2018-10-03T00:42:04.545Z,9.05
2018-10-03T00:45:08.143Z,8.89
2018-10-03T00:48:11.631Z,8.92
2018-10-03T00:51:15.308Z,8.82
2018-10-03T00:54:18.872Z,8.82
2018-10-03T00:57:22.479Z,8.91
2018-10-03T01:00:26.085Z,8.91
2018-10-03T01:03:29.679Z,8.92
2018-10-03T01:06:33.194Z,8.92
2018-10-03T01:09:36.974Z,8.95
2018-10-03T01:12:40.590Z,8.90
2018-10-03T01:15:44.101Z,8.86
2018-10-03T01:18:47.991Z,8.87
2018-10-03T01:21:51.495Z,8.85
2018-10-03T01:24:54.977Z,8.92
2018-10-03T01:27:58.533Z,8.95
2018-10-03T01:31:02.166Z,8.94
2018-10-03T01:34:05.719Z,8.92
2018-10-03T01:37:09.211Z,8.90
2018-10-03T01:40:12.695Z,8.92
2018-10-03T01:43:16.310Z,8.92
2018-10-03T01:46:19.873Z,8.96
2018-10-03T01:49:23.569Z,9.02
2018-10-03T01:52:27.111Z,9.04
2018-10-03T01:55:30.745Z,9.07
2018-10-03T01:58:34.295Z,9.03
2018-10-03T02:01:37.777Z,9.06
2018-10-03T02:04:41.302Z,9.08
2018-10-03T02:07:44.869Z,9.11
2018-10-03T02:10:48.444Z,9.18
2018-10-03T02:13:52.066Z,9.20
2018-10-03T02:16:55.740Z,9.19
2018-10-03T02:19:59.406Z,9.16
2018-10-03T02:23:02.929Z,9.15
2018-10-03T02:26:06.531Z,9.16
2018-10-03T02:29:10.197Z,9.14
2018-10-03T02:32:13.802Z,9.18
2018-10-03T02:35:17.420Z,9.23
2018-10-03T02:38:21.286Z,9.24
2018-10-03T02:41:24.855Z,9.24
2018-10-03T02:44:28.455Z,9.29
2018-10-03T02:47:32.109Z,9.34
2018-10-03T02:50:35.696Z,9.32
2018-10-03T02:53:39.545Z,9.27
2018-10-03T02:56:43.290Z,9.18
2018-10-03T02:59:46.900Z,9.16
2018-10-03T03:02:50.460Z,9.20
2018-10-03T03:05:54.017Z,9.21
2018-10-03T03:08:57.714Z,9.24
2018-10-03T03:12:01.175Z,9.23
2018-10-03T03:15:04.933Z,9.32
2018-10-03T03:18:08.535Z,9.33
2018-10-03T03:21:12.076Z,9.23
2018-10-03T03:24:15.582Z,9.30
2018-10-03T03:27:19.185Z,9.37
2018-10-03T03:30:22.742Z,9.40
2018-10-03T03:33:26.497Z,9.44
2018-10-03T03:36:30.031Z,9.53
2018-10-03T03:39:33.627Z,9.53
2018-10-03T03:42:37.207Z,9.53
2018-10-03T03:45:40.829Z,9.48
2018-10-03T03:48:44.316Z,9.41
2018-10-03T03:51:47.847Z,9.45
2018-10-03T03:54:51.336Z,9.37
2018-10-03T03:57:54.889Z,9.29
2018-10-03T04:00:58.413Z,9.27
2018-10-03T04:04:02.012Z,9.36
2018-10-03T04:07:05.777Z,9.38
2018-10-03T04:10:09.326Z,9.38
2018-10-03T04:13:13.026Z,9.34
2018-10-03T04:16:16.551Z,9.41
2018-10-03T04:19:20.143Z,9.42
2018-10-03T04:22:23.741Z,9.50
2018-10-03T04:25:27.377Z,9.66
2018-10-03T04:28:30.941Z,9.67
2018-10-03T04:31:35.386Z,9.68
2018-10-03T04:34:38.961Z,9.66
2018-10-03T04:37:42.527Z,9.65
2018-10-03T04:40:46.194Z,9.70
2018-10-03T04:43:49.728Z,9.64
2018-10-03T04:46:53.398Z,9.61
2018-10-03T04:49:56.908Z,9.52
2018-10-03T04:53:00.448Z,9.59
2018-10-03T04:56:04.107Z,9.63
2018-10-03T04:59:07.783Z,9.69
2018-10-03T05:02:11.436Z,9.69
2018-10-03T05:05:15.041Z,9.74
2018-10-03T05:08:18.612Z,9.81
2018-10-03T05:11:22.315Z,10.00
2018-10-03T05:14:26.073Z,10.01
2018-10-03T05:17:29.566Z,10.01
2018-10-03T05:20:33.392Z,10.04
2018-10-03T05:23:37.040Z,10.12
2018-10-03T05:26:40.637Z,10.08
2018-10-03T05:29:44.178Z,10.03
2018-10-03T05:32:47.888Z,10.04
2018-10-03T05:35:51.458Z,10.13
2018-10-03T05:38:55.375Z,10.28
2018-10-03T05:41:58.968Z,10.33
2018-10-03T05:45:02.610Z,10.40
2018-10-03T05:48:06.518Z,10.42
2018-10-03T05:51:11.191Z,10.42
2018-10-03T05:54:14.745Z,10.40
2018-10-03T05:57:18.298Z,10.40
2018-10-03T06:00:21.920Z,10.44
2018-10-03T06:03:25.601Z,10.58
2018-10-03T06:06:29.253Z,10.70
2018-10-03T06:09:32.926Z,10.90
2018-10-03T06:12:36.684Z,10.88
2018-10-03T06:15:40.373Z,10.89
2018-10-03T06:18:44.004Z,10.89
2018-10-03T06:21:47.643Z,10.87
2018-10-03T06:24:51.178Z,10.85
2018-10-03T06:27:54.826Z,10.74
2018-10-03T06:30:58.401Z,10.71
2018-10-03T06:34:02.182Z,10.77
2018-10-03T06:37:06.126Z,10.89
2018-10-03T06:40:09.986Z,11.19
2018-10-03T06:43:13.594Z,11.30
2018-10-03T06:46:17.205Z,11.17
2018-10-03T06:49:20.956Z,11.13
2018-10-03T06:52:24.579Z,11.08
2018-10-03T06:55:28.267Z,10.94
2018-10-03T06:58:31.825Z,10.81
2018-10-03T07:01:35.396Z,10.87
2018-10-03T07:04:39.209Z,11.02
2018-10-03T07:07:42.937Z,11.12
2018-10-03T07:10:52.860Z,11.27
2018-10-03T07:13:56.537Z,11.13
2018-10-03T07:17:00.296Z,11.31
2018-10-03T07:20:04.363Z,11.36
2018-10-03T07:23:08.099Z,11.58
2018-10-03T07:26:11.983Z,11.63
2018-10-03T07:29:15.480Z,11.44
2018-10-03T07:32:19.084Z,11.39
2018-10-03T07:35:22.749Z,11.38
2018-10-03T07:38:26.401Z,11.43
2018-10-03T07:41:30.000Z,11.46
2018-10-03T07:44:33.780Z,11.68
2018-10-03T07:47:37.359Z,11.66
2018-10-03T07:50:41.151Z,11.58
2018-10-03T07:53:44.885Z,11.61
2018-10-03T07:56:48.536Z,11.69
2018-10-03T07:59:52.159Z,11.89
2018-10-03T08:02:56.030Z,11.82
2018-10-03T08:05:59.740Z,12.07
2018-10-03T08:09:03.798Z,12.43
2018-10-03T08:12:07.467Z,12.29
2018-10-03T08:15:11.192Z,12.46
2018-10-03T08:18:14.828Z,12.47
2018-10-03T08:21:19.510Z,12.40
2018-10-03T08:24:23.228Z,12.35
2018-10-03T08:27:26.886Z,12.28
2018-10-03T08:30:30.461Z,12.23
2018-10-03T08:33:34.123Z,12.05
2018-10-03T08:36:37.966Z,12.36
2018-10-03T08:39:41.638Z,12.33
2018-10-03T08:42:45.324Z,12.18
2018-10-03T08:45:49.015Z,12.02
2018-10-03T08:48:52.725Z,12.52
2018-10-03T08:51:56.608Z,12.93
2018-10-03T08:55:00.174Z,12.95
2018-10-03T08:58:04.007Z,12.99
2018-10-03T09:01:08.002Z,12.84
2018-10-03T09:04:11.753Z,12.67
2018-10-03T09:07:15.350Z,13.01
2018-10-03T09:10:19.007Z,13.21
2018-10-03T09:13:22.670Z,13.41
2018-10-03T09:16:26.303Z,13.46
2018-10-03T09:19:29.890Z,13.23
2018-10-03T09:22:33.513Z,13.43
2018-10-03T09:25:37.091Z,13.17
2018-10-03T09:28:40.716Z,13.29
2018-10-03T09:31:44.483Z,13.33
2018-10-03T09:34:48.061Z,13.10
2018-10-03T09:37:51.991Z,13.16
2018-10-03T09:40:55.647Z,13.26
2018-10-03T09:43:59.301Z,13.14
2018-10-03T09:47:02.925Z,13.45
2018-10-03T09:50:07.482Z,13.10
2018-10-03T09:53:11.107Z,12.93
2018-10-03T09:56:14.715Z,12.99
2018-10-03T09:59:18.390Z,13.18
2018-10-03T10:02:22.103Z,13.03
2018-10-03T10:05:25.908Z,12.93
2018-10-03T10:08:29.596Z,12.59
2018-10-03T10:11:33.354Z,12.87
2018-10-03T10:14:36.988Z,12.79
2018-10-03T10:17:40.657Z,12.75
2018-10-03T10:20:44.460Z,12.95
2018-10-03T10:23:48.040Z,13.26
2018-10-03T10:26:51.824Z,13.12
2018-10-03T10:29:55.452Z,13.38
2018-10-03T10:32:59.369Z,13.30
2018-10-03T10:36:02.953Z,13.25
2018-10-03T10:39:09.047Z,13.38
2018-10-03T10:42:12.646Z,13.41
2018-10-03T10:45:16.450Z,13.79
2018-10-03T10:48:20.337Z,14.22
2018-10-03T10:51:23.953Z,14.15
2018-10-03T10:54:27.637Z,14.41
2018-10-03T10:57:31.284Z,14.27
2018-10-03T11:00:35.213Z,14.08
2018-10-03T11:03:38.987Z,13.90
2018-10-03T11:06:42.723Z,13.60
2018-10-03T11:09:46.427Z,13.39
2018-10-03T11:12:50.162Z,13.02
2018-10-03T11:15:53.799Z,13.15
2018-10-03T11:18:57.412Z,13.23
2018-10-03T11:22:01.143Z,13.34
2018-10-03T11:25:04.836Z,13.50
2018-10-03T11:28:08.472Z,13.78
2018-10-03T11:31:12.177Z,14.06
2018-10-03T11:34:15.777Z,14.11
2018-10-03T11:37:19.501Z,14.04
2018-10-03T11:40:23.099Z,14.27
2018-10-03T11:43:26.808Z,13.94
2018-10-03T11:46:30.472Z,13.75
2018-10-03T11:49:34.063Z,13.89
2018-10-03T11:52:37.822Z,14.03
2018-10-03T11:55:41.473Z,14.10
2018-10-03T11:58:45.345Z,14.17
2018-10-03T12:01:48.995Z,14.36
2018-10-03T12:04:52.824Z,14.47
2018-10-03T12:07:56.937Z,14.65
2018-10-03T12:11:00.612Z,14.54
2018-10-03T12:14:04.982Z,14.42
2018-10-03T12:17:08.798Z,14.44
2018-10-03T12:20:12.424Z,14.04
2018-10-03T12:23:15.994Z,13.67
2018-10-03T12:26:19.609Z,13.84
2018-10-03T12:29:23.355Z,13.83
2018-10-03T12:32:27.147Z,13.60
2018-10-03T12:35:34.739Z,13.55
2018-10-03T12:38:38.383Z,13.51
2018-10-03T12:41:42.006Z,13.35
2018-10-03T12:44:45.643Z,13.29
2018-10-03T12:47:49.352Z,13.46
2018-10-03T12:50:52.985Z,13.58
2018-10-03T12:53:56.754Z,13.46
2018-10-03T12:57:00.463Z,13.53
2018-10-03T13:00:04.352Z,13.67
2018-10-03T13:03:08.104Z,13.46
2018-10-03T13:06:11.732Z,13.39
2018-10-03T13:09:15.900Z,13.26
2018-10-03T13:12:19.517Z,13.33
2018-10-03T13:15:23.134Z,13.33
2018-10-03T13:18:26.743Z,13.44
2018-10-03T13:21:30.362Z,13.33
2018-10-03T13:24:33.997Z,13.46
2018-10-03T13:27:37.750Z,13.39
2018-10-03T13:30:41.455Z,13.38
2018-10-03T13:33:44.943Z,13.44
2018-10-03T13:36:48.720Z,13.52
2018-10-03T13:39:52.411Z,13.54
2018-10-03T13:42:55.895Z,13.52
2018-10-03T13:45:59.943Z,13.64
2018-10-03T13:49:03.759Z,13.63
2018-10-03T13:52:07.964Z,13.66
2018-10-03T13:55:11.624Z,13.67
2018-10-03T13:58:15.285Z,13.56
2018-10-03T14:01:18.890Z,13.68
2018-10-03T14:04:22.523Z,13.71
2018-10-03T14:07:26.175Z,13.86
2018-10-03T14:10:29.788Z,14.04
2018-10-03T14:13:33.456Z,13.98
2018-10-03T14:16:37.097Z,13.94
2018-10-03T14:19:40.775Z,14.06
2018-10-03T14:22:44.520Z,14.20
2018-10-03T14:25:48.214Z,14.08
2018-10-03T14:28:51.851Z,13.97
2018-10-03T14:31:55.487Z,14.06
2018-10-03T14:34:59.153Z,14.24
2018-10-03T14:38:02.859Z,14.32
2018-10-03T14:41:06.625Z,14.20
2018-10-03T14:44:10.280Z,14.21
2018-10-03T14:47:13.908Z,14.37
2018-10-03T14:50:17.590Z,14.10
2018-10-03T14:53:21.339Z,14.07
2018-10-03T14:56:25.046Z,14.17
2018-10-03T14:59:28.718Z,14.27
2018-10-03T15:02:32.437Z,14.43
2018-10-03T15:05:36.409Z,14.42
2018-10-03T15:08:40.115Z,14.45
2018-10-03T15:11:43.771Z,14.47
2018-10-03T15:14:47.462Z,14.38
2018-10-03T15:17:51.122Z,14.33
2018-10-03T15:20:54.755Z,14.36
2018-10-03T15:23:58.453Z,14.33
2018-10-03T15:27:02.042Z,14.43
2018-10-03T15:30:05.977Z,14.39
2018-10-03T15:33:09.791Z,14.37
2018-10-03T15:36:13.563Z,14.11
2018-10-03T15:39:17.225Z,14.03
2018-10-03T15:42:21.078Z,14.04
2018-10-03T15:45:24.708Z,14.06
2018-10-03T15:48:28.457Z,13.88
2018-10-03T15:51:32.155Z,13.77
2018-10-03T15:54:35.916Z,13.69
2018-10-03T15:57:39.640Z,13.62
2018-10-03T16:00:43.377Z,13.49
2018-10-03T16:03:47.015Z,13.51
2018-10-03T16:06:50.842Z,13.50
2018-10-03T16:09:54.485Z,13.49
2018-10-03T16:12:58.216Z,13.39
2018-10-03T16:16:01.968Z,13.30
2018-10-03T16:19:05.671Z,13.26
2018-10-03T16:22:09.388Z,13.19
2018-10-03T16:25:14.028Z,13.18
2018-10-03T16:28:17.849Z,13.02
2018-10-03T16:31:21.489Z,12.94
2018-10-03T16:34:25.271Z,12.75
2018-10-03T16:37:29.012Z,12.63
2018-10-03T16:40:32.791Z,12.62
2018-10-03T16:43:36.496Z,12.52
2018-10-03T16:46:40.292Z,12.41
2018-10-03T16:49:43.961Z,12.28
2018-10-03T16:52:47.689Z,12.11
2018-10-03T16:55:51.546Z,11.97
2018-10-03T16:58:55.228Z,11.82
2018-10-03T17:01:59.045Z,11.64
2018-10-03T17:05:02.918Z,11.64
2018-10-03T17:08:06.562Z,11.82
2018-10-03T17:11:10.321Z,11.70
2018-10-03T17:14:23.798Z,11.72
2018-10-03T17:17:27.437Z,11.56
2018-10-03T17:20:31.188Z,11.45
2018-10-03T17:23:35.144Z,11.42
2018-10-03T17:26:38.755Z,11.34
2018-10-03T17:29:42.556Z,11.36
2018-10-03T17:32:46.211Z,11.32
2018-10-03T17:35:50.089Z,11.17
2018-10-03T17:38:53.714Z,10.97
2018-10-03T17:41:57.610Z,11.00
2018-10-03T17:45:01.201Z,10.87
2018-10-03T17:48:05.249Z,10.80
2018-10-03T17:51:08.903Z,10.88
2018-10-03T17:54:12.872Z,10.78
2018-10-03T17:57:16.519Z,10.99
2018-10-03T18:00:20.277Z,10.92
2018-10-03T18:03:23.907Z,10.88
2018-10-03T18:06:27.632Z,11.01
2018-10-03T18:09:31.314Z,10.94
2018-10-03T18:12:35.052Z,11.04
2018-10-03T18:15:38.790Z,11.02
2018-10-03T18:18:42.577Z,10.93
2018-10-03T18:21:46.540Z,10.94
2018-10-03T18:24:50.321Z,11.09
2018-10-03T18:27:54.047Z,11.14
2018-10-03T18:30:57.833Z,11.10
2018-10-03T18:34:01.628Z,11.09
2018-10-03T18:37:05.553Z,11.14
2018-10-03T18:40:09.565Z,11.04
2018-10-03T18:43:13.429Z,11.02
2018-10-03T18:46:17.384Z,11.04
2018-10-03T18:49:21.274Z,10.97
2018-10-03T18:52:25.314Z,10.96
2018-10-03T18:55:29.228Z,10.96
2018-10-03T18:58:33.223Z,11.02
2018-10-03T19:01:37.159Z,10.99
2018-10-03T19:04:41.045Z,10.92
2018-10-03T19:07:45.081Z,10.90
2018-10-03T19:10:49.109Z,10.86
2018-10-03T19:13:53.208Z,10.88
2018-10-03T19:16:57.177Z,10.87
2018-10-03T19:20:01.335Z,10.83
2018-10-03T19:23:05.510Z,10.79
2018-10-03T19:26:09.481Z,10.64
2018-10-03T19:29:13.417Z,10.39
2018-10-03T19:32:17.334Z,10.38
2018-10-03T19:35:21.239Z,10.33
2018-10-03T19:38:25.171Z,10.33
2018-10-03T19:41:28.872Z,10.26
2018-10-03T19:44:34.659Z,10.25
2018-10-03T19:47:38.796Z,10.30
2018-10-03T19:50:42.486Z,10.22
2018-10-03T19:53:46.190Z,10.26
2018-10-03T19:56:49.883Z,10.31
2018-10-03T19:59:53.618Z,10.46
2018-10-03T20:02:57.286Z,10.34
2018-10-03T20:06:01.017Z,10.27
2018-10-03T20:09:06.064Z,10.14
2018-10-03T20:12:09.718Z,10.11
2018-10-03T20:15:13.449Z,10.28
2018-10-03T20:18:17.243Z,10.29
2018-10-03T20:21:20.917Z,10.23
2018-10-03T20:24:24.595Z,10.29
2018-10-03T20:27:28.234Z,10.20
2018-10-03T20:30:32.060Z,10.03
2018-10-03T20:33:35.725Z,10.03
2018-10-03T20:36:39.349Z,9.98
2018-10-03T20:39:43.415Z,10.11
2018-10-03T20:42:47.197Z,9.94
2018-10-03T20:45:51.143Z,9.89
2018-10-03T20:48:54.864Z,9.69
2018-10-03T20:51:58.860Z,9.62
2018-10-03T20:55:02.767Z,9.52
2018-10-03T20:58:06.438Z,9.64
2018-10-03T21:01:10.096Z,9.71
2018-10-03T21:04:13.614Z,9.64
2018-10-03T21:07:17.270Z,9.59
2018-10-03T21:10:20.949Z,9.44
2018-10-03T21:13:24.433Z,9.52
2018-10-03T21:16:28.006Z,9.60
2018-10-03T21:19:31.534Z,9.54
2018-10-03T21:22:35.119Z,9.40
2018-10-03T21:25:38.803Z,9.60
2018-10-03T21:28:42.285Z,9.57
2018-10-03T21:31:45.989Z,9.23
2018-10-03T21:34:49.474Z,9.22
2018-10-03T21:37:53.134Z,9.10
2018-10-03T21:40:56.642Z,8.97
2018-10-03T21:44:00.219Z,8.90
2018-10-03T21:47:03.934Z,8.95
2018-10-03T21:50:07.655Z,8.85
2018-10-03T21:53:11.219Z,8.79
2018-10-03T21:56:14.798Z,8.92
2018-10-03T21:59:18.436Z,8.96
2018-10-03T22:02:21.903Z,8.95
2018-10-03T22:05:25.635Z,9.19
2018-10-03T22:08:29.191Z,9.27
2018-10-03T22:11:32.918Z,9.32
2018-10-03T22:14:36.451Z,9.02
2018-10-03T22:17:41.020Z,9.01
2018-10-03T22:20:44.657Z,9.06
2018-10-03T22:23:48.245Z,9.00
2018-10-03T22:26:51.781Z,9.10
2018-10-03T22:29:55.335Z,9.14
2018-10-03T22:32:58.901Z,9.33
2018-10-03T22:36:02.490Z,9.49
2018-10-03T22:39:07.798Z,9.56
2018-10-03T22:42:11.400Z,9.61
2018-10-03T22:45:14.894Z,9.67
2018-10-03T22:48:18.383Z,9.77
2018-10-03T22:51:21.869Z,9.88
2018-10-03T22:54:25.484Z,9.85
2018-10-03T22:57:29.148Z,9.95
2018-10-03T23:00:32.934Z,9.91
2018-10-03T23:03:36.427Z,9.84
2018-10-03T23:06:39.955Z,9.90
2018-10-03T23:09:43.575Z,9.82
2018-10-03T23:12:47.099Z,9.86
2018-10-03T23:15:50.633Z,9.88
2018-10-03T23:18:54.216Z,9.89
2018-10-03T23:21:57.734Z,9.88
2018-10-03T23:25:01.325Z,9.84
2018-10-03T23:28:05.161Z,9.83
2018-10-03T23:31:08.769Z,9.77
2018-10-03T23:34:12.229Z,9.67
2018-10-03T23:37:15.801Z,9.75
2018-10-03T23:40:19.380Z,9.69
2018-10-03T23:43:22.890Z,9.59
2018-10-03T23:46:26.516Z,9.56
2018-10-03T23:49:30.130Z,9.45
2018-10-03T23:52:33.686Z,9.29
2018-10-03T23:55:37.246Z,9.19
2018-10-03T23:58:40.862Z,9.22
